sensor_id;sensor_type;location;lat;lon;timestamp;temperature;humidity
32506;DHT22;18955;51.224;8.482;2022-07-18T00:00:18;17.40;58.00
32506;DHT22;18955;51.224;8.482;2022-07-18T00:02:44;17.40;58.30
32506;DHT22;18955;51.224;8.482;2022-07-18T00:05:10;17.30;58.20
32506;DHT22;18955;51.224;8.482;2022-07-18T00:07:37;17.30;58.00
32506;DHT22;18955;51.224;8.482;2022-07-18T00:10:03;17.20;58.20
32506;DHT22;18955;51.224;8.482;2022-07-18T00:12:30;17.20;58.10
32506;DHT22;18955;51.224;8.482;2022-07-18T00:14:56;17.20;58.40
32506;DHT22;18955;51.224;8.482;2022-07-18T00:17:22;17.10;58.10
32506;DHT22;18955;51.224;8.482;2022-07-18T00:19:49;17.10;58.10
32506;DHT22;18955;51.224;8.482;2022-07-18T00:22:15;17.00;58.00
32506;DHT22;18955;51.224;8.482;2022-07-18T00:24:41;17.00;58.10
32506;DHT22;18955;51.224;8.482;2022-07-18T00:27:07;16.90;58.00
32506;DHT22;18955;51.224;8.482;2022-07-18T00:29:35;16.90;58.00
32506;DHT22;18955;51.224;8.482;2022-07-18T00:32:06;16.90;58.30
32506;DHT22;18955;51.224;8.482;2022-07-18T00:34:33;16.80;58.00
32506;DHT22;18955;51.224;8.482;2022-07-18T00:37:00;16.80;58.00
32506;DHT22;18955;51.224;8.482;2022-07-18T00:39:27;16.70;58.10
32506;DHT22;18955;51.224;8.482;2022-07-18T00:41:53;16.70;58.10
32506;DHT22;18955;51.224;8.482;2022-07-18T00:44:21;16.60;58.10
32506;DHT22;18955;51.224;8.482;2022-07-18T00:46:52;16.60;58.10
32506;DHT22;18955;51.224;8.482;2022-07-18T00:49:19;16.60;58.30
32506;DHT22;18955;51.224;8.482;2022-07-18T00:51:46;16.60;58.20
32506;DHT22;18955;51.224;8.482;2022-07-18T00:54:12;16.50;58.20
32506;DHT22;18955;51.224;8.482;2022-07-18T00:56:39;16.50;58.30
32506;DHT22;18955;51.224;8.482;2022-07-18T00:59:06;16.50;58.30
32506;DHT22;18955;51.224;8.482;2022-07-18T01:01:32;16.50;58.50
32506;DHT22;18955;51.224;8.482;2022-07-18T01:04:23;16.40;58.30
32506;DHT22;18955;51.224;8.482;2022-07-18T01:06:50;16.40;58.30
32506;DHT22;18955;51.224;8.482;2022-07-18T01:09:18;16.30;58.30
32506;DHT22;18955;51.224;8.482;2022-07-18T01:11:45;16.30;58.40
32506;DHT22;18955;51.224;8.482;2022-07-18T01:14:12;16.30;58.50
32506;DHT22;18955;51.224;8.482;2022-07-18T01:16:39;16.20;58.30
32506;DHT22;18955;51.224;8.482;2022-07-18T01:19:05;16.20;58.40
32506;DHT22;18955;51.224;8.482;2022-07-18T01:21:32;16.20;58.50
32506;DHT22;18955;51.224;8.482;2022-07-18T01:23:59;16.10;58.50
32506;DHT22;18955;51.224;8.482;2022-07-18T01:26:25;16.10;58.50
32506;DHT22;18955;51.224;8.482;2022-07-18T01:28:51;16.10;58.50
32506;DHT22;18955;51.224;8.482;2022-07-18T01:31:18;16.00;58.50
32506;DHT22;18955;51.224;8.482;2022-07-18T01:33:44;16.00;58.50
32506;DHT22;18955;51.224;8.482;2022-07-18T01:36:10;16.00;58.60
32506;DHT22;18955;51.224;8.482;2022-07-18T01:38:37;16.00;59.10
32506;DHT22;18955;51.224;8.482;2022-07-18T01:41:04;15.90;58.60
32506;DHT22;18955;51.224;8.482;2022-07-18T01:43:31;15.90;58.70
32506;DHT22;18955;51.224;8.482;2022-07-18T01:45:57;15.90;58.70
32506;DHT22;18955;51.224;8.482;2022-07-18T01:48:24;15.80;58.80
32506;DHT22;18955;51.224;8.482;2022-07-18T01:50:51;15.80;58.80
32506;DHT22;18955;51.224;8.482;2022-07-18T01:53:18;15.80;58.80
32506;DHT22;18955;51.224;8.482;2022-07-18T01:55:44;15.80;58.90
32506;DHT22;18955;51.224;8.482;2022-07-18T01:58:10;15.70;58.90
32506;DHT22;18955;51.224;8.482;2022-07-18T02:00:36;15.70;58.90
32506;DHT22;18955;51.224;8.482;2022-07-18T02:03:02;15.70;58.90
32506;DHT22;18955;51.224;8.482;2022-07-18T02:05:29;15.60;59.10
32506;DHT22;18955;51.224;8.482;2022-07-18T02:07:55;15.60;59.00
32506;DHT22;18955;51.224;8.482;2022-07-18T02:10:21;15.60;59.00
32506;DHT22;18955;51.224;8.482;2022-07-18T02:12:48;15.60;59.00
32506;DHT22;18955;51.224;8.482;2022-07-18T02:15:15;15.50;59.00
32506;DHT22;18955;51.224;8.482;2022-07-18T02:17:42;15.50;59.10
32506;DHT22;18955;51.224;8.482;2022-07-18T02:20:10;15.50;59.70
32506;DHT22;18955;51.224;8.482;2022-07-18T02:22:38;15.50;59.30
32506;DHT22;18955;51.224;8.482;2022-07-18T02:25:06;15.50;59.20
32506;DHT22;18955;51.224;8.482;2022-07-18T02:27:32;15.40;59.20
32506;DHT22;18955;51.224;8.482;2022-07-18T02:29:59;15.40;59.20
32506;DHT22;18955;51.224;8.482;2022-07-18T02:32:25;15.40;59.30
32506;DHT22;18955;51.224;8.482;2022-07-18T02:34:51;15.40;59.40
32506;DHT22;18955;51.224;8.482;2022-07-18T02:37:18;15.30;59.40
32506;DHT22;18955;51.224;8.482;2022-07-18T02:39:44;15.30;59.50
32506;DHT22;18955;51.224;8.482;2022-07-18T02:42:10;15.30;59.50
32506;DHT22;18955;51.224;8.482;2022-07-18T02:44:36;15.30;59.60
32506;DHT22;18955;51.224;8.482;2022-07-18T02:47:03;15.20;59.50
32506;DHT22;18955;51.224;8.482;2022-07-18T02:49:30;15.20;59.50
32506;DHT22;18955;51.224;8.482;2022-07-18T02:52:02;15.20;59.60
32506;DHT22;18955;51.224;8.482;2022-07-18T02:54:29;15.20;59.60
32506;DHT22;18955;51.224;8.482;2022-07-18T02:56:56;15.10;59.60
32506;DHT22;18955;51.224;8.482;2022-07-18T02:59:22;15.10;59.70
32506;DHT22;18955;51.224;8.482;2022-07-18T03:01:49;15.10;59.70
32506;DHT22;18955;51.224;8.482;2022-07-18T03:04:17;15.10;59.70
32506;DHT22;18955;51.224;8.482;2022-07-18T03:06:44;15.00;59.70
32506;DHT22;18955;51.224;8.482;2022-07-18T03:09:11;15.00;59.70
32506;DHT22;18955;51.224;8.482;2022-07-18T03:11:37;15.00;59.70
32506;DHT22;18955;51.224;8.482;2022-07-18T03:14:04;15.00;59.80
32506;DHT22;18955;51.224;8.482;2022-07-18T03:16:30;15.00;59.80
32506;DHT22;18955;51.224;8.482;2022-07-18T03:18:58;14.90;59.90
32506;DHT22;18955;51.224;8.482;2022-07-18T03:21:24;14.90;59.80
32506;DHT22;18955;51.224;8.482;2022-07-18T03:23:51;14.90;59.90
32506;DHT22;18955;51.224;8.482;2022-07-18T03:26:18;14.90;59.90
32506;DHT22;18955;51.224;8.482;2022-07-18T03:28:44;14.80;60.00
32506;DHT22;18955;51.224;8.482;2022-07-18T03:31:10;14.80;60.00
32506;DHT22;18955;51.224;8.482;2022-07-18T03:33:38;14.80;60.00
32506;DHT22;18955;51.224;8.482;2022-07-18T03:36:05;14.80;60.00
32506;DHT22;18955;51.224;8.482;2022-07-18T03:38:32;14.80;60.00
32506;DHT22;18955;51.224;8.482;2022-07-18T03:40:58;14.70;60.00
32506;DHT22;18955;51.224;8.482;2022-07-18T03:43:24;14.70;60.10
32506;DHT22;18955;51.224;8.482;2022-07-18T03:45:50;14.70;60.10
32506;DHT22;18955;51.224;8.482;2022-07-18T03:48:17;14.70;60.20
32506;DHT22;18955;51.224;8.482;2022-07-18T03:50:43;14.70;60.20
32506;DHT22;18955;51.224;8.482;2022-07-18T03:53:09;14.60;60.80
32506;DHT22;18955;51.224;8.482;2022-07-18T03:55:36;14.60;60.30
32506;DHT22;18955;51.224;8.482;2022-07-18T03:58:02;14.60;60.30
32506;DHT22;18955;51.224;8.482;2022-07-18T04:00:28;14.60;60.30
32506;DHT22;18955;51.224;8.482;2022-07-18T04:02:55;14.50;60.30
32506;DHT22;18955;51.224;8.482;2022-07-18T04:05:21;14.60;60.40
32506;DHT22;18955;51.224;8.482;2022-07-18T04:07:47;14.50;60.50
32506;DHT22;18955;51.224;8.482;2022-07-18T04:10:13;14.50;60.30
32506;DHT22;18955;51.224;8.482;2022-07-18T04:12:51;14.50;60.40
32506;DHT22;18955;51.224;8.482;2022-07-18T04:15:19;14.50;60.50
32506;DHT22;18955;51.224;8.482;2022-07-18T04:17:46;14.40;60.60
32506;DHT22;18955;51.224;8.482;2022-07-18T04:20:13;14.50;60.60
32506;DHT22;18955;51.224;8.482;2022-07-18T04:22:52;14.40;60.60
32506;DHT22;18955;51.224;8.482;2022-07-18T04:25:20;14.40;60.60
32506;DHT22;18955;51.224;8.482;2022-07-18T04:27:47;14.40;60.70
32506;DHT22;18955;51.224;8.482;2022-07-18T04:30:15;14.30;61.20
32506;DHT22;18955;51.224;8.482;2022-07-18T04:32:42;14.40;60.80
32506;DHT22;18955;51.224;8.482;2022-07-18T04:35:09;14.40;60.80
32506;DHT22;18955;51.224;8.482;2022-07-18T04:37:35;14.30;60.80
32506;DHT22;18955;51.224;8.482;2022-07-18T04:40:02;14.30;60.90
32506;DHT22;18955;51.224;8.482;2022-07-18T04:42:28;14.30;60.80
32506;DHT22;18955;51.224;8.482;2022-07-18T04:44:56;14.30;60.90
32506;DHT22;18955;51.224;8.482;2022-07-18T04:47:23;14.30;61.00
32506;DHT22;18955;51.224;8.482;2022-07-18T04:49:50;14.20;60.90
32506;DHT22;18955;51.224;8.482;2022-07-18T04:52:16;14.20;61.10
32506;DHT22;18955;51.224;8.482;2022-07-18T04:54:42;14.20;61.10
32506;DHT22;18955;51.224;8.482;2022-07-18T04:57:09;14.20;61.20
32506;DHT22;18955;51.224;8.482;2022-07-18T04:59:37;14.20;61.10
32506;DHT22;18955;51.224;8.482;2022-07-18T05:02:04;14.20;61.10
32506;DHT22;18955;51.224;8.482;2022-07-18T05:04:30;14.20;61.20
32506;DHT22;18955;51.224;8.482;2022-07-18T05:06:56;14.20;61.20
32506;DHT22;18955;51.224;8.482;2022-07-18T05:09:23;14.10;61.30
32506;DHT22;18955;51.224;8.482;2022-07-18T05:11:49;14.10;61.30
32506;DHT22;18955;51.224;8.482;2022-07-18T05:14:15;14.10;61.40
32506;DHT22;18955;51.224;8.482;2022-07-18T05:16:41;14.10;61.30
32506;DHT22;18955;51.224;8.482;2022-07-18T05:19:08;14.10;61.50
32506;DHT22;18955;51.224;8.482;2022-07-18T05:21:34;14.10;61.40
32506;DHT22;18955;51.224;8.482;2022-07-18T05:24:00;14.10;61.50
32506;DHT22;18955;51.224;8.482;2022-07-18T05:26:26;14.00;61.60
32506;DHT22;18955;51.224;8.482;2022-07-18T05:28:52;14.00;61.60
32506;DHT22;18955;51.224;8.482;2022-07-18T05:31:19;14.00;61.60
32506;DHT22;18955;51.224;8.482;2022-07-18T05:33:45;14.00;61.60
32506;DHT22;18955;51.224;8.482;2022-07-18T05:36:11;14.00;61.90
32506;DHT22;18955;51.224;8.482;2022-07-18T05:38:37;14.00;61.80
32506;DHT22;18955;51.224;8.482;2022-07-18T05:41:04;14.00;61.80
32506;DHT22;18955;51.224;8.482;2022-07-18T05:43:30;14.00;61.90
32506;DHT22;18955;51.224;8.482;2022-07-18T05:45:56;14.00;62.10
32506;DHT22;18955;51.224;8.482;2022-07-18T05:48:23;14.00;62.00
32506;DHT22;18955;51.224;8.482;2022-07-18T05:50:49;14.00;62.20
32506;DHT22;18955;51.224;8.482;2022-07-18T05:53:15;14.00;62.10
32506;DHT22;18955;51.224;8.482;2022-07-18T05:55:41;14.00;62.10
32506;DHT22;18955;51.224;8.482;2022-07-18T05:58:07;14.00;62.50
32506;DHT22;18955;51.224;8.482;2022-07-18T06:00:34;14.10;62.20
32506;DHT22;18955;51.224;8.482;2022-07-18T06:03:00;14.10;62.20
32506;DHT22;18955;51.224;8.482;2022-07-18T06:05:27;14.20;62.00
32506;DHT22;18955;51.224;8.482;2022-07-18T06:07:54;14.20;61.70
32506;DHT22;18955;51.224;8.482;2022-07-18T06:10:22;14.20;61.50
32506;DHT22;18955;51.224;8.482;2022-07-18T06:12:48;14.30;61.50
32506;DHT22;18955;51.224;8.482;2022-07-18T06:15:16;14.30;61.50
32506;DHT22;18955;51.224;8.482;2022-07-18T06:17:42;14.40;61.30
32506;DHT22;18955;51.224;8.482;2022-07-18T06:20:09;14.50;61.30
32506;DHT22;18955;51.224;8.482;2022-07-18T06:22:37;14.50;61.00
32506;DHT22;18955;51.224;8.482;2022-07-18T06:25:04;14.60;60.80
32506;DHT22;18955;51.224;8.482;2022-07-18T06:27:30;14.60;60.80
32506;DHT22;18955;51.224;8.482;2022-07-18T06:29:56;14.70;60.70
32506;DHT22;18955;51.224;8.482;2022-07-18T06:32:24;14.80;60.60
32506;DHT22;18955;51.224;8.482;2022-07-18T06:34:50;14.80;60.50
32506;DHT22;18955;51.224;8.482;2022-07-18T06:37:17;14.80;60.40
32506;DHT22;18955;51.224;8.482;2022-07-18T06:39:43;14.80;60.40
32506;DHT22;18955;51.224;8.482;2022-07-18T06:42:09;14.90;60.40
32506;DHT22;18955;51.224;8.482;2022-07-18T06:44:35;14.90;60.30
32506;DHT22;18955;51.224;8.482;2022-07-18T06:47:01;15.00;60.40
32506;DHT22;18955;51.224;8.482;2022-07-18T06:49:28;15.00;60.30
32506;DHT22;18955;51.224;8.482;2022-07-18T06:51:54;15.00;60.30
32506;DHT22;18955;51.224;8.482;2022-07-18T06:54:20;15.10;60.20
32506;DHT22;18955;51.224;8.482;2022-07-18T06:56:53;15.10;60.20
32506;DHT22;18955;51.224;8.482;2022-07-18T06:59:19;15.20;60.30
32506;DHT22;18955;51.224;8.482;2022-07-18T07:01:45;15.20;60.30
32506;DHT22;18955;51.224;8.482;2022-07-18T07:04:11;15.20;60.30
32506;DHT22;18955;51.224;8.482;2022-07-18T07:06:37;15.20;60.40
32506;DHT22;18955;51.224;8.482;2022-07-18T07:09:05;15.30;60.60
32506;DHT22;18955;51.224;8.482;2022-07-18T07:11:31;15.30;60.50
32506;DHT22;18955;51.224;8.482;2022-07-18T07:13:57;15.40;60.50
32506;DHT22;18955;51.224;8.482;2022-07-18T07:16:24;15.40;60.40
32506;DHT22;18955;51.224;8.482;2022-07-18T07:18:50;15.50;60.30
32506;DHT22;18955;51.224;8.482;2022-07-18T07:21:16;15.50;60.20
32506;DHT22;18955;51.224;8.482;2022-07-18T07:23:42;15.60;60.30
32506;DHT22;18955;51.224;8.482;2022-07-18T07:26:09;15.60;60.30
32506;DHT22;18955;51.224;8.482;2022-07-18T07:28:35;15.70;60.30
32506;DHT22;18955;51.224;8.482;2022-07-18T07:31:01;15.70;60.30
32506;DHT22;18955;51.224;8.482;2022-07-18T07:33:27;15.70;60.30
32506;DHT22;18955;51.224;8.482;2022-07-18T07:35:53;15.80;60.10
32506;DHT22;18955;51.224;8.482;2022-07-18T07:38:20;15.80;60.30
32506;DHT22;18955;51.224;8.482;2022-07-18T07:40:48;15.90;60.30
32506;DHT22;18955;51.224;8.482;2022-07-18T07:43:16;16.00;60.00
32506;DHT22;18955;51.224;8.482;2022-07-18T07:45:47;16.00;60.00
32506;DHT22;18955;51.224;8.482;2022-07-18T07:48:15;16.10;60.00
32506;DHT22;18955;51.224;8.482;2022-07-18T07:50:42;16.10;60.10
32506;DHT22;18955;51.224;8.482;2022-07-18T07:53:09;16.20;60.10
32506;DHT22;18955;51.224;8.482;2022-07-18T07:55:36;16.20;60.20
32506;DHT22;18955;51.224;8.482;2022-07-18T07:58:02;16.20;60.20
32506;DHT22;18955;51.224;8.482;2022-07-18T08:00:31;16.30;60.00
32506;DHT22;18955;51.224;8.482;2022-07-18T08:03:00;16.30;60.10
32506;DHT22;18955;51.224;8.482;2022-07-18T08:05:28;16.40;60.00
32506;DHT22;18955;51.224;8.482;2022-07-18T08:07:56;16.40;60.00
32506;DHT22;18955;51.224;8.482;2022-07-18T08:10:22;16.50;60.00
32506;DHT22;18955;51.224;8.482;2022-07-18T08:12:48;16.50;60.10
32506;DHT22;18955;51.224;8.482;2022-07-18T08:15:15;16.60;60.20
32506;DHT22;18955;51.224;8.482;2022-07-18T08:17:41;16.60;60.20
32506;DHT22;18955;51.224;8.482;2022-07-18T08:20:08;16.60;60.10
32506;DHT22;18955;51.224;8.482;2022-07-18T08:22:35;16.70;60.20
32506;DHT22;18955;51.224;8.482;2022-07-18T08:25:02;16.70;60.50
32506;DHT22;18955;51.224;8.482;2022-07-18T08:27:28;16.70;60.30
32506;DHT22;18955;51.224;8.482;2022-07-18T08:29:55;16.80;60.60
32506;DHT22;18955;51.224;8.482;2022-07-18T08:32:21;16.80;61.20
32506;DHT22;18955;51.224;8.482;2022-07-18T08:34:47;16.90;60.60
32506;DHT22;18955;51.224;8.482;2022-07-18T08:37:13;16.90;60.50
32506;DHT22;18955;51.224;8.482;2022-07-18T08:39:39;16.90;60.60
32506;DHT22;18955;51.224;8.482;2022-07-18T08:42:07;17.00;60.90
32506;DHT22;18955;51.224;8.482;2022-07-18T08:44:34;17.00;61.00
32506;DHT22;18955;51.224;8.482;2022-07-18T08:47:02;17.00;61.00
32506;DHT22;18955;51.224;8.482;2022-07-18T08:49:29;17.00;60.90
32506;DHT22;18955;51.224;8.482;2022-07-18T08:51:56;17.10;60.90
32506;DHT22;18955;51.224;8.482;2022-07-18T08:54:22;17.10;61.00
32506;DHT22;18955;51.224;8.482;2022-07-18T08:56:49;17.20;61.10
32506;DHT22;18955;51.224;8.482;2022-07-18T08:59:15;17.20;61.20
32506;DHT22;18955;51.224;8.482;2022-07-18T09:01:41;17.20;61.20
32506;DHT22;18955;51.224;8.482;2022-07-18T09:04:07;17.30;61.30
32506;DHT22;18955;51.224;8.482;2022-07-18T09:06:45;17.30;61.00
32506;DHT22;18955;51.224;8.482;2022-07-18T09:09:12;17.30;61.00
32506;DHT22;18955;51.224;8.482;2022-07-18T09:11:54;17.40;61.10
32506;DHT22;18955;51.224;8.482;2022-07-18T09:14:28;17.50;61.20
32506;DHT22;18955;51.224;8.482;2022-07-18T09:17:14;17.40;61.20
32506;DHT22;18955;51.224;8.482;2022-07-18T09:20:00;17.50;61.20
32506;DHT22;18955;51.224;8.482;2022-07-18T09:22:32;17.50;61.00
32506;DHT22;18955;51.224;8.482;2022-07-18T09:25:10;17.60;61.20
32506;DHT22;18955;51.224;8.482;2022-07-18T09:27:44;17.60;61.00
32506;DHT22;18955;51.224;8.482;2022-07-18T09:30:31;17.70;61.40
32506;DHT22;18955;51.224;8.482;2022-07-18T09:38:04;17.80;61.00
32506;DHT22;18955;51.224;8.482;2022-07-18T09:40:33;17.90;61.00
32506;DHT22;18955;51.224;8.482;2022-07-18T09:43:05;17.90;61.00
32506;DHT22;18955;51.224;8.482;2022-07-18T09:45:34;18.00;61.10
32506;DHT22;18955;51.224;8.482;2022-07-18T09:48:08;17.90;60.90
32506;DHT22;18955;51.224;8.482;2022-07-18T09:50:53;18.00;61.00
32506;DHT22;18955;51.224;8.482;2022-07-18T09:53:26;18.00;60.80
32506;DHT22;18955;51.224;8.482;2022-07-18T09:55:54;18.10;61.20
32506;DHT22;18955;51.224;8.482;2022-07-18T09:58:25;18.10;61.30
32506;DHT22;18955;51.224;8.482;2022-07-18T10:00:53;18.20;61.10
32506;DHT22;18955;51.224;8.482;2022-07-18T10:03:21;18.20;61.20
32506;DHT22;18955;51.224;8.482;2022-07-18T10:05:49;18.20;61.30
32506;DHT22;18955;51.224;8.482;2022-07-18T10:08:22;18.20;61.40
32506;DHT22;18955;51.224;8.482;2022-07-18T10:10:50;18.20;61.60
32506;DHT22;18955;51.224;8.482;2022-07-18T10:13:18;18.30;62.10
32506;DHT22;18955;51.224;8.482;2022-07-18T10:15:46;18.30;61.60
32506;DHT22;18955;51.224;8.482;2022-07-18T10:18:15;18.40;61.40
32506;DHT22;18955;51.224;8.482;2022-07-18T10:20:47;18.40;61.50
32506;DHT22;18955;51.224;8.482;2022-07-18T10:23:23;18.50;61.60
32506;DHT22;18955;51.224;8.482;2022-07-18T10:31:30;18.50;61.30
32506;DHT22;18955;51.224;8.482;2022-07-18T10:47:06;18.70;61.80
32506;DHT22;18955;51.224;8.482;2022-07-18T11:18:23;19.10;62.20
32506;DHT22;18955;51.224;8.482;2022-07-18T11:20:49;19.10;62.20
32506;DHT22;18955;51.224;8.482;2022-07-18T11:23:21;19.10;62.20
32506;DHT22;18955;51.224;8.482;2022-07-18T11:25:49;19.20;62.20
32506;DHT22;18955;51.224;8.482;2022-07-18T11:28:17;19.20;62.30
32506;DHT22;18955;51.224;8.482;2022-07-18T11:30:45;19.20;62.30
32506;DHT22;18955;51.224;8.482;2022-07-18T11:33:22;19.20;62.40
32506;DHT22;18955;51.224;8.482;2022-07-18T11:35:49;19.30;62.30
32506;DHT22;18955;51.224;8.482;2022-07-18T11:38:16;19.30;62.30
32506;DHT22;18955;51.224;8.482;2022-07-18T11:40:50;19.30;62.50
32506;DHT22;18955;51.224;8.482;2022-07-18T11:43:24;19.40;62.60
32506;DHT22;18955;51.224;8.482;2022-07-18T11:48:35;19.40;62.40
32506;DHT22;18955;51.224;8.482;2022-07-18T11:51:02;19.40;62.50
32506;DHT22;18955;51.224;8.482;2022-07-18T11:53:29;19.50;62.70
32506;DHT22;18955;51.224;8.482;2022-07-18T11:55:55;19.50;62.60
32506;DHT22;18955;51.224;8.482;2022-07-18T11:58:22;19.50;62.70
32506;DHT22;18955;51.224;8.482;2022-07-18T12:00:48;19.50;62.80
32506;DHT22;18955;51.224;8.482;2022-07-18T12:03:20;19.50;62.70
32506;DHT22;18955;51.224;8.482;2022-07-18T12:05:50;19.60;62.80
32506;DHT22;18955;51.224;8.482;2022-07-18T12:16:05;19.70;63.10
32506;DHT22;18955;51.224;8.482;2022-07-18T12:18:32;19.70;62.50
32506;DHT22;18955;51.224;8.482;2022-07-18T12:21:11;19.70;62.50
32506;DHT22;18955;51.224;8.482;2022-07-18T12:23:37;19.70;62.70
32506;DHT22;18955;51.224;8.482;2022-07-18T12:26:03;19.80;63.00
32506;DHT22;18955;51.224;8.482;2022-07-18T12:28:30;19.80;62.90
32506;DHT22;18955;51.224;8.482;2022-07-18T12:30:56;19.80;62.60
32506;DHT22;18955;51.224;8.482;2022-07-18T12:33:22;19.80;62.80
32506;DHT22;18955;51.224;8.482;2022-07-18T12:35:57;19.80;63.00
32506;DHT22;18955;51.224;8.482;2022-07-18T12:38:23;19.90;62.90
32506;DHT22;18955;51.224;8.482;2022-07-18T12:43:34;19.90;63.10
32506;DHT22;18955;51.224;8.482;2022-07-18T12:46:03;20.00;63.20
32506;DHT22;18955;51.224;8.482;2022-07-18T12:48:32;20.00;63.20
32506;DHT22;18955;51.224;8.482;2022-07-18T12:51:07;20.00;63.80
32506;DHT22;18955;51.224;8.482;2022-07-18T12:53:36;20.00;63.10
32506;DHT22;18955;51.224;8.482;2022-07-18T12:56:03;20.10;63.30
32506;DHT22;18955;51.224;8.482;2022-07-18T12:58:29;20.10;63.30
32506;DHT22;18955;51.224;8.482;2022-07-18T13:00:55;20.10;63.40
32506;DHT22;18955;51.224;8.482;2022-07-18T13:03:22;20.20;63.40
32506;DHT22;18955;51.224;8.482;2022-07-18T13:05:49;20.20;63.60
32506;DHT22;18955;51.224;8.482;2022-07-18T13:08:15;20.20;63.60
32506;DHT22;18955;51.224;8.482;2022-07-18T13:10:41;20.20;63.50
32506;DHT22;18955;51.224;8.482;2022-07-18T13:13:08;20.30;63.50
32506;DHT22;18955;51.224;8.482;2022-07-18T13:15:34;20.30;63.60
32506;DHT22;18955;51.224;8.482;2022-07-18T13:18:01;20.30;63.70
32506;DHT22;18955;51.224;8.482;2022-07-18T13:20:27;20.30;63.70
32506;DHT22;18955;51.224;8.482;2022-07-18T13:22:53;20.30;63.70
32506;DHT22;18955;51.224;8.482;2022-07-18T13:25:20;20.40;63.70
32506;DHT22;18955;51.224;8.482;2022-07-18T13:27:47;20.40;63.60
32506;DHT22;18955;51.224;8.482;2022-07-18T13:30:13;20.40;63.60
32506;DHT22;18955;51.224;8.482;2022-07-18T13:32:39;20.50;63.10
32506;DHT22;18955;51.224;8.482;2022-07-18T13:35:07;20.50;63.70
32506;DHT22;18955;51.224;8.482;2022-07-18T13:37:33;20.50;63.60
32506;DHT22;18955;51.224;8.482;2022-07-18T13:39:59;20.60;63.80
32506;DHT22;18955;51.224;8.482;2022-07-18T13:42:25;20.60;63.80
32506;DHT22;18955;51.224;8.482;2022-07-18T13:44:51;20.70;63.80
32506;DHT22;18955;51.224;8.482;2022-07-18T13:47:17;20.70;63.80
32506;DHT22;18955;51.224;8.482;2022-07-18T13:49:43;20.70;62.40
32506;DHT22;18955;51.224;8.482;2022-07-18T13:52:09;20.70;63.90
32506;DHT22;18955;51.224;8.482;2022-07-18T13:54:35;20.80;64.10
32506;DHT22;18955;51.224;8.482;2022-07-18T13:57:01;20.80;61.30
32506;DHT22;18955;51.224;8.482;2022-07-18T13:59:27;20.80;62.90
32506;DHT22;18955;51.224;8.482;2022-07-18T14:01:53;20.90;63.90
32506;DHT22;18955;51.224;8.482;2022-07-18T14:04:21;20.90;64.20
32506;DHT22;18955;51.224;8.482;2022-07-18T14:06:47;21.00;64.30
32506;DHT22;18955;51.224;8.482;2022-07-18T14:09:13;21.00;64.20
32506;DHT22;18955;51.224;8.482;2022-07-18T14:11:39;21.00;64.20
32506;DHT22;18955;51.224;8.482;2022-07-18T14:14:05;21.10;64.30
32506;DHT22;18955;51.224;8.482;2022-07-18T14:16:31;21.10;64.40
32506;DHT22;18955;51.224;8.482;2022-07-18T14:18:58;21.10;64.60
32506;DHT22;18955;51.224;8.482;2022-07-18T14:21:24;21.20;64.70
32506;DHT22;18955;51.224;8.482;2022-07-18T14:23:51;21.20;64.70
32506;DHT22;18955;51.224;8.482;2022-07-18T14:26:17;21.20;64.50
32506;DHT22;18955;51.224;8.482;2022-07-18T14:28:43;21.30;65.20
32506;DHT22;18955;51.224;8.482;2022-07-18T14:31:09;21.30;64.70
32506;DHT22;18955;51.224;8.482;2022-07-18T14:33:35;21.40;64.80
32506;DHT22;18955;51.224;8.482;2022-07-18T14:36:01;21.50;64.70
32506;DHT22;18955;51.224;8.482;2022-07-18T14:38:27;21.50;64.60
32506;DHT22;18955;51.224;8.482;2022-07-18T14:40:53;21.50;64.50
32506;DHT22;18955;51.224;8.482;2022-07-18T14:43:19;21.60;64.70
32506;DHT22;18955;51.224;8.482;2022-07-18T14:45:45;21.60;64.90
32506;DHT22;18955;51.224;8.482;2022-07-18T14:48:12;21.70;64.90
32506;DHT22;18955;51.224;8.482;2022-07-18T14:50:38;21.70;64.90
32506;DHT22;18955;51.224;8.482;2022-07-18T14:53:04;21.80;64.80
32506;DHT22;18955;51.224;8.482;2022-07-18T14:55:30;21.90;64.70
32506;DHT22;18955;51.224;8.482;2022-07-18T14:57:56;21.90;64.70
32506;DHT22;18955;51.224;8.482;2022-07-18T15:00:22;21.90;64.70
32506;DHT22;18955;51.224;8.482;2022-07-18T15:02:48;22.00;64.80
32506;DHT22;18955;51.224;8.482;2022-07-18T15:05:14;22.10;64.80
32506;DHT22;18955;51.224;8.482;2022-07-18T15:07:40;22.20;64.70
32506;DHT22;18955;51.224;8.482;2022-07-18T15:10:06;22.20;64.70
32506;DHT22;18955;51.224;8.482;2022-07-18T15:12:32;22.30;64.60
32506;DHT22;18955;51.224;8.482;2022-07-18T15:14:58;22.40;64.60
32506;DHT22;18955;51.224;8.482;2022-07-18T15:17:24;22.40;64.40
32506;DHT22;18955;51.224;8.482;2022-07-18T15:19:50;22.40;64.60
32506;DHT22;18955;51.224;8.482;2022-07-18T15:22:16;22.50;64.60
32506;DHT22;18955;51.224;8.482;2022-07-18T15:24:42;22.60;64.20
32506;DHT22;18955;51.224;8.482;2022-07-18T15:27:09;22.60;64.10
32506;DHT22;18955;51.224;8.482;2022-07-18T15:29:35;22.70;64.00
32506;DHT22;18955;51.224;8.482;2022-07-18T15:32:01;22.70;63.90
32506;DHT22;18955;51.224;8.482;2022-07-18T15:34:38;22.80;63.90
32506;DHT22;18955;51.224;8.482;2022-07-18T17:18:14;25.00;65.00
32506;DHT22;18955;51.224;8.482;2022-07-18T17:20:40;24.90;65.90
32506;DHT22;18955;51.224;8.482;2022-07-18T17:23:07;24.90;66.20
32506;DHT22;18955;51.224;8.482;2022-07-18T17:25:33;25.00;66.60
32506;DHT22;18955;51.224;8.482;2022-07-18T17:28:03;25.00;66.60
32506;DHT22;18955;51.224;8.482;2022-07-18T17:30:29;25.00;66.60
32506;DHT22;18955;51.224;8.482;2022-07-18T17:32:55;25.00;66.40
32506;DHT22;18955;51.224;8.482;2022-07-18T17:35:22;25.00;66.60
32506;DHT22;18955;51.224;8.482;2022-07-18T17:37:48;25.00;66.80
32506;DHT22;18955;51.224;8.482;2022-07-18T17:40:16;25.00;66.70
32506;DHT22;18955;51.224;8.482;2022-07-18T17:42:42;25.10;66.80
32506;DHT22;18955;51.224;8.482;2022-07-18T17:45:09;25.10;66.70
32506;DHT22;18955;51.224;8.482;2022-07-18T17:47:35;25.10;66.50
32506;DHT22;18955;51.224;8.482;2022-07-18T17:50:08;25.10;66.60
32506;DHT22;18955;51.224;8.482;2022-07-18T17:52:34;25.10;66.80
32506;DHT22;18955;51.224;8.482;2022-07-18T17:55:01;25.10;66.60
32506;DHT22;18955;51.224;8.482;2022-07-18T17:57:27;25.10;66.60
32506;DHT22;18955;51.224;8.482;2022-07-18T17:59:53;25.10;66.50
32506;DHT22;18955;51.224;8.482;2022-07-18T18:02:19;25.10;66.50
32506;DHT22;18955;51.224;8.482;2022-07-18T18:04:45;25.10;66.60
32506;DHT22;18955;51.224;8.482;2022-07-18T18:07:12;25.10;66.40
32506;DHT22;18955;51.224;8.482;2022-07-18T18:09:38;25.10;66.20
32506;DHT22;18955;51.224;8.482;2022-07-18T18:12:04;25.10;66.20
32506;DHT22;18955;51.224;8.482;2022-07-18T18:14:34;25.10;66.40
32506;DHT22;18955;51.224;8.482;2022-07-18T18:17:00;25.10;66.10